Time;durP1;ratioP1;P1;durP2;ratioP2;P2;SDS_P1;SDS_P2;PMS_P1;PMS_P2;Temp;Humidity;BMP_temperature;BMP_pressure;BME280_temperature;BME280_humidity;BME280_pressure;Samples;Min_cycle;Max_cycle;Signal;HPM_P1;HPM_P2
2021/10/23 00:01:20;;;;;;;17.65;7.97;;;;;17.80;100019.00;;;;5064821;28;20384;-75
2021/10/23 00:03:49;;;;;;;19.83;7.90;;;;;17.70;100020.00;;;;5066498;28;20036;-73
2021/10/23 00:06:19;;;;;;;21.25;8.27;;;;;17.90;100022.00;;;;5065512;28;20110;-72
2021/10/23 00:08:48;;;;;;;18.80;7.63;;;;;17.90;100025.00;;;;5065634;28;20072;-75
2021/10/23 00:11:18;;;;;;;17.25;8.57;;;;;17.80;100033.00;;;;5066092;28;20484;-72
2021/10/23 00:13:47;;;;;;;18.25;8.02;;;;;17.70;100036.00;;;;5068865;28;20590;-75
2021/10/23 00:16:16;;;;;;;16.55;8.25;;;;;17.70;100040.00;;;;5090995;28;20036;-75
2021/10/23 00:18:46;;;;;;;25.75;8.48;;;;;17.70;100045.00;;;;5098101;28;20067;-73
2021/10/23 00:21:15;;;;;;;20.58;7.35;;;;;17.70;100025.00;;;;5095990;28;20444;-72
2021/10/23 00:23:45;;;;;;;14.90;8.10;;;;;17.60;100048.00;;;;5096080;28;20050;-73
2021/10/23 00:26:14;;;;;;;15.93;8.13;;;;;17.60;100041.00;;;;5097930;28;20044;-74
2021/10/23 00:28:45;;;;;;;17.33;7.63;;;;;17.50;100026.00;;;;5103259;28;20047;-75
2021/10/23 00:31:14;;;;;;;15.32;7.78;;;;;17.50;100048.00;;;;5100076;28;20044;-74
2021/10/23 00:33:44;;;;;;;13.93;7.95;;;;;17.50;100039.00;;;;5099055;28;20507;-73
2021/10/23 00:36:14;;;;;;;18.50;7.95;;;;;17.40;100036.00;;;;5098168;28;20044;-75
2021/10/23 00:38:45;;;;;;;20.17;8.15;;;;;17.30;100039.00;;;;5097540;28;20043;-75
2021/10/23 00:41:14;;;;;;;19.70;7.80;;;;;17.30;100035.00;;;;5099980;28;20043;-72
2021/10/23 00:43:45;;;;;;;18.10;7.85;;;;;17.20;100029.00;;;;5106677;28;20051;-74
2021/10/23 00:46:16;;;;;;;15.27;8.30;;;;;17.20;100041.00;;;;5105446;28;20032;-75
2021/10/23 00:48:46;;;;;;;15.87;8.03;;;;;17.30;100023.00;;;;5095974;28;20054;-76
2021/10/23 00:51:16;;;;;;;16.23;7.95;;;;;17.20;100021.00;;;;5093967;27;20097;-74
2021/10/23 00:53:46;;;;;;;20.20;8.05;;;;;17.20;100029.00;;;;5087947;28;20040;-72
2021/10/23 00:56:17;;;;;;;19.88;8.75;;;;;17.20;100040.00;;;;5089214;28;20044;-73
2021/10/23 00:58:48;;;;;;;14.32;8.05;;;;;17.20;100044.00;;;;5088571;28;20039;-72
2021/10/23 01:01:17;;;;;;;15.82;7.97;;;;;17.20;100018.00;;;;5088680;28;20052;-74
2021/10/23 01:03:47;;;;;;;13.02;7.82;;;;;17.10;100036.00;;;;5087874;28;20546;-73
2021/10/23 01:06:16;;;;;;;18.75;8.50;;;;;17.20;100026.00;;;;5088737;28;20052;-74
2021/10/23 01:08:46;;;;;;;21.17;7.95;;;;;17.20;100028.00;;;;5089932;28;20411;-75
2021/10/23 01:11:16;;;;;;;23.95;8.55;;;;;17.20;100036.00;;;;5098505;27;20047;-74
2021/10/23 01:13:45;;;;;;;12.32;7.75;;;;;17.10;100032.00;;;;5098435;28;20465;-73
2021/10/23 01:16:16;;;;;;;15.27;7.88;;;;;17.10;100040.00;;;;5096953;28;20036;-73
2021/10/23 01:18:46;;;;;;;13.65;7.85;;;;;17.00;100057.00;;;;5097372;28;20032;-73
2021/10/23 01:21:20;;;;;;;18.23;9.00;;;;;17.00;100051.00;;;;5104988;28;20514;-75
2021/10/23 01:23:51;;;;;;;16.13;9.02;;;;;17.10;100056.00;;;;5109512;28;20043;-74
2021/10/23 01:26:24;;;;;;;20.17;8.13;;;;;17.10;100037.00;;;;5108354;28;20057;-75
2021/10/23 01:28:54;;;;;;;18.85;8.20;;;;;17.10;100058.00;;;;5106751;28;20478;-73
2021/10/23 01:31:23;;;;;;;29.38;8.55;;;;;17.20;100052.00;;;;5107981;28;20058;-74
2021/10/23 01:33:52;;;;;;;14.88;7.90;;;;;17.10;100030.00;;;;5105466;28;20496;-73
2021/10/23 01:36:23;;;;;;;14.85;7.47;;;;;17.10;100054.00;;;;5108451;28;20050;-74
2021/10/23 01:38:52;;;;;;;16.38;7.78;;;;;17.10;100042.00;;;;5108396;28;20070;-72
2021/10/23 01:41:21;;;;;;;13.40;7.60;;;;;17.00;100034.00;;;;5108411;28;20056;-73
2021/10/23 01:43:51;;;;;;;22.05;8.18;;;;;17.00;100039.00;;;;5108489;28;20036;-72
2021/10/23 01:46:20;;;;;;;25.20;8.43;;;;;16.90;100023.00;;;;5109092;27;20399;-73
2021/10/23 01:48:50;;;;;;;17.30;8.93;;;;;16.90;100028.00;;;;5108575;28;20055;-73
2021/10/23 01:51:19;;;;;;;19.25;8.18;;;;;16.80;100011.00;;;;5107977;28;20084;-73
2021/10/23 01:53:49;;;;;;;19.35;8.90;;;;;16.70;100009.00;;;;5108102;28;20086;-72
2021/10/23 01:56:18;;;;;;;15.48;8.05;;;;;16.60;100032.00;;;;5108382;28;20039;-76
2021/10/23 01:58:47;;;;;;;16.02;7.95;;;;;16.60;100033.00;;;;5108079;28;20062;-73
2021/10/23 02:01:17;;;;;;;18.15;8.15;;;;;16.50;100026.00;;;;5108110;28;20047;-73
2021/10/23 02:03:46;;;;;;;22.60;8.77;;;;;16.50;100021.00;;;;5107659;28;20143;-73
2021/10/23 02:06:16;;;;;;;24.92;9.02;;;;;16.50;100028.00;;;;5107617;28;20135;-73
2021/10/23 02:08:45;;;;;;;17.35;8.75;;;;;16.40;100038.00;;;;5107682;28;20054;-73
2021/10/23 02:11:15;;;;;;;18.42;8.60;;;;;16.40;100014.00;;;;5107937;28;20044;-73
2021/10/23 02:13:45;;;;;;;18.15;9.02;;;;;16.40;100011.00;;;;5108157;28;20036;-73
2021/10/23 02:16:15;;;;;;;15.68;9.05;;;;;16.30;100032.00;;;;5108186;28;20043;-73
2021/10/23 02:18:45;;;;;;;20.73;9.50;;;;;16.30;100029.00;;;;5106120;28;20109;-74
2021/10/23 02:21:14;;;;;;;21.38;9.45;;;;;16.20;100003.00;;;;5107464;28;20293;-74
2021/10/23 02:23:44;;;;;;;17.27;8.43;;;;;16.40;100019.00;;;;5106362;28;20048;-74
2021/10/23 02:26:14;;;;;;;16.23;8.20;;;;;16.50;100007.00;;;;5107809;28;20054;-73
2021/10/23 02:28:44;;;;;;;14.20;8.05;;;;;16.50;100013.00;;;;5107279;28;20092;-73
2021/10/23 02:31:14;;;;;;;18.20;8.77;;;;;16.50;99994.00;;;;5107791;28;20052;-73
2021/10/23 02:33:44;;;;;;;17.25;8.45;;;;;16.50;100003.00;;;;5106819;28;20055;-73
2021/10/23 02:36:15;;;;;;;24.00;7.80;;;;;16.50;100003.00;;;;5107375;28;20043;-73
2021/10/23 02:38:46;;;;;;;11.10;7.60;;;;;16.60;99990.00;;;;5107706;28;20109;-74
2021/10/23 02:41:17;;;;;;;;;;;;;16.50;100006.00;;;;5108548;28;20430;-74
2021/10/23 02:43:46;;;;;;;15.60;8.40;;;;;16.50;99986.00;;;;5107034;28;19950;-73
2021/10/23 02:46:16;;;;;;;14.93;8.75;;;;;16.60;100000.00;;;;5107212;28;20092;-74
2021/10/23 02:48:46;;;;;;;22.75;7.82;;;;;16.60;99982.00;;;;5107010;28;20054;-73
2021/10/23 02:51:15;;;;;;;15.48;8.10;;;;;16.50;99977.00;;;;5107083;28;20590;-72
2021/10/23 02:53:45;;;;;;;13.80;7.28;;;;;16.30;99961.00;;;;5107516;28;20048;-74
2021/10/23 02:56:14;;;;;;;12.77;7.75;;;;;16.20;99962.00;;;;5105656;28;20048;-74
2021/10/23 02:58:44;;;;;;;16.88;7.93;;;;;16.10;99967.00;;;;5107280;28;20054;-74
2021/10/23 03:01:13;;;;;;;18.42;7.72;;;;;16.10;99978.00;;;;5107995;28;20054;-74
2021/10/23 03:03:43;;;;;;;13.95;8.00;;;;;16.00;99983.00;;;;5105788;28;20052;-74
2021/10/23 03:06:14;;;;;;;18.05;8.77;;;;;16.10;99973.00;;;;5106866;28;20066;-73
2021/10/23 03:08:46;;;;;;;21.83;9.32;;;;;16.20;99966.00;;;;5107238;28;20039;-75
2021/10/23 03:11:16;;;;;;;15.73;8.75;;;;;16.30;99989.00;;;;5105751;28;20510;-74
2021/10/23 03:13:46;;;;;;;15.15;8.98;;;;;16.20;99967.00;;;;5107027;28;20043;-73
2021/10/23 03:16:16;;;;;;;25.50;9.23;;;;;16.10;99986.00;;;;5106959;28;20518;-74
2021/10/23 03:18:45;;;;;;;18.88;8.20;;;;;15.90;99991.00;;;;5107568;28;20146;-74
2021/10/23 03:21:15;;;;;;;11.90;8.02;;;;;15.80;99959.00;;;;5105328;28;20075;-73
2021/10/23 03:23:44;;;;;;;18.35;8.70;;;;;15.60;99962.00;;;;5105921;28;20048;-74
2021/10/23 03:26:14;;;;;;;18.20;8.23;;;;;15.50;99958.00;;;;5107095;28;20437;-73
2021/10/23 03:28:46;;;;;;;13.48;8.18;;;;;15.40;99968.00;;;;5106967;28;20047;-75
2021/10/23 03:31:16;;;;;;;15.93;7.85;;;;;15.40;99972.00;;;;5107156;28;20039;-74
2021/10/23 03:33:46;;;;;;;18.67;8.70;;;;;15.40;99954.00;;;;5106093;28;20093;-74
2021/10/23 03:36:16;;;;;;;14.30;9.00;;;;;15.30;99963.00;;;;5107104;28;20044;-72
2021/10/23 03:38:45;;;;;;;16.15;8.90;;;;;15.30;99939.00;;;;5106067;28;20051;-74
2021/10/23 03:41:15;;;;;;;18.60;9.90;;;;;15.20;99962.00;;;;5106810;28;20406;-75
2021/10/23 03:43:45;;;;;;;16.38;9.32;;;;;15.10;99946.00;;;;5106835;28;20051;-75
2021/10/23 03:46:15;;;;;;;16.33;9.38;;;;;15.00;99952.00;;;;5107736;28;20092;-75
2021/10/23 03:48:45;;;;;;;18.58;9.15;;;;;15.00;99937.00;;;;5110408;28;20590;-75
2021/10/23 03:51:14;;;;;;;15.00;9.35;;;;;15.00;99941.00;;;;5110783;28;20047;-75
2021/10/23 03:53:43;;;;;;;15.25;9.00;;;;;15.00;99917.00;;;;5110578;28;20055;-73
2021/10/23 03:56:13;;;;;;;14.60;8.63;;;;;15.00;99919.00;;;;5110565;28;20047;-76
2021/10/23 03:58:43;;;;;;;19.63;9.00;;;;;14.90;99919.00;;;;5109998;28;20051;-74
2021/10/23 04:01:12;;;;;;;18.63;9.15;;;;;14.90;99897.00;;;;5110842;28;20414;-72
2021/10/23 04:03:42;;;;;;;14.57;9.45;;;;;14.80;99877.00;;;;5109301;28;20052;-74
2021/10/23 04:06:13;;;;;;;16.88;10.38;;;;;14.80;99880.00;;;;5109288;28;20056;-73
2021/10/23 04:08:44;;;;;;;22.88;10.35;;;;;14.80;99897.00;;;;5110204;28;20051;-75
2021/10/23 04:11:14;;;;;;;20.67;11.25;;;;;14.80;99877.00;;;;5110244;28;20043;-74
2021/10/23 04:13:44;;;;;;;16.25;10.40;;;;;14.80;99884.00;;;;5110690;28;20422;-73
2021/10/23 04:16:15;;;;;;;15.32;10.80;;;;;14.80;99891.00;;;;5110268;28;20036;-73
2021/10/23 04:18:45;;;;;;;20.42;11.10;;;;;14.80;99887.00;;;;5110330;28;20051;-74
2021/10/23 04:21:15;;;;;;;17.83;9.80;;;;;14.80;99886.00;;;;5109292;28;20050;-74
2021/10/23 04:23:45;;;;;;;14.07;9.65;;;;;14.80;99870.00;;;;5108475;28;20043;-75
2021/10/23 04:26:14;;;;;;;13.75;9.55;;;;;14.80;99866.00;;;;5109773;28;20047;-73
2021/10/23 04:28:44;;;;;;;19.95;9.45;;;;;14.70;99897.00;;;;5109432;28;20047;-75
2021/10/23 04:31:14;;;;;;;15.57;9.70;;;;;14.60;99871.00;;;;5109911;28;20051;-75
2021/10/23 04:33:44;;;;;;;18.45;10.20;;;;;14.60;99877.00;;;;5110122;28;20051;-74
2021/10/23 04:36:13;;;;;;;16.20;10.35;;;;;14.60;99880.00;;;;5109452;28;20052;-73
2021/10/23 04:38:44;;;;;;;17.58;10.98;;;;;14.60;99874.00;;;;5109878;28;20048;-74
2021/10/23 04:41:13;;;;;;;23.13;10.17;;;;;14.60;99853.00;;;;5110204;28;20051;-74
2021/10/23 04:43:43;;;;;;;19.70;11.88;;;;;14.50;99847.00;;;;5109715;27;20277;-74
2021/10/23 04:46:13;;;;;;;15.40;10.52;;;;;14.50;99841.00;;;;5109242;28;20039;-74
2021/10/23 04:48:44;;;;;;;16.98;9.88;;;;;14.60;99842.00;;;;5109163;28;20046;-74
2021/10/23 04:51:14;;;;;;;14.98;9.90;;;;;14.60;99830.00;;;;5109311;28;20123;-74
2021/10/23 04:53:50;;;;;;;21.23;11.25;;;;;14.50;99825.00;;;;5109554;28;20506;-73
2021/10/23 04:56:20;;;;;;;16.30;9.57;;;;;14.50;99834.00;;;;5109113;28;20061;-74
2021/10/23 04:58:50;;;;;;;21.23;10.82;;;;;14.40;99822.00;;;;5109581;28;20043;-73
2021/10/23 05:01:20;;;;;;;18.63;10.65;;;;;14.40;99823.00;;;;5107995;28;20134;-74
2021/10/23 05:03:50;;;;;;;26.38;10.85;;;;;14.30;99810.00;;;;5109090;28;20526;-74
2021/10/23 05:06:20;;;;;;;20.75;10.90;;;;;14.30;99798.00;;;;5109677;28;20069;-74
2021/10/23 05:08:50;;;;;;;16.37;11.37;;;;;14.30;99817.00;;;;5109482;28;20516;-74
2021/10/23 05:11:19;;;;;;;23.42;12.23;;;;;14.20;99801.00;;;;5109395;28;20736;-74
2021/10/23 05:13:48;;;;;;;15.77;11.07;;;;;14.40;99810.00;;;;5108579;28;20070;-74
2021/10/23 05:16:18;;;;;;;24.80;11.68;;;;;14.30;99803.00;;;;5109036;28;20517;-75
2021/10/23 05:18:49;;;;;;;19.88;12.20;;;;;14.30;99808.00;;;;5108954;28;20043;-73
2021/10/23 05:21:19;;;;;;;16.52;11.15;;;;;14.20;99829.00;;;;5108979;28;20054;-74
2021/10/23 05:23:53;;;;;;;18.80;12.13;;;;;14.20;99810.00;;;;5108888;28;20384;-75
2021/10/23 05:26:22;;;;;;;17.73;12.45;;;;;14.10;99826.00;;;;5109139;28;20039;-74
2021/10/23 05:28:52;;;;;;;20.27;11.50;;;;;14.10;99819.00;;;;5107488;28;20059;-74
2021/10/23 05:31:21;;;;;;;16.58;12.02;;;;;14.10;99788.00;;;;5109413;28;20043;-75
2021/10/23 05:33:56;;;;;;;20.60;12.00;;;;;14.10;99790.00;;;;5108927;28;20502;-73
2021/10/23 05:36:25;;;;;;;17.92;11.57;;;;;14.10;99810.00;;;;5108399;28;20043;-74
2021/10/23 05:38:55;;;;;;;23.00;11.48;;;;;14.10;99789.00;;;;5108805;28;20118;-73
2021/10/23 05:41:25;;;;;;;22.65;11.48;;;;;14.00;99803.00;;;;5108704;28;20040;-74
2021/10/23 05:43:55;;;;;;;17.55;10.70;;;;;14.00;99778.00;;;;5108314;28;20042;-74
2021/10/23 05:46:24;;;;;;;24.40;12.10;;;;;14.00;99782.00;;;;5108097;28;20047;-74
2021/10/23 05:48:54;;;;;;;16.83;10.85;;;;;14.00;99788.00;;;;5107957;28;20051;-73
2021/10/23 05:51:24;;;;;;;16.92;11.00;;;;;13.90;99757.00;;;;5108980;28;20044;-74
2021/10/23 05:53:54;;;;;;;20.80;11.43;;;;;13.90;99748.00;;;;5108750;28;20706;-74
2021/10/23 05:56:23;;;;;;;14.48;10.57;;;;;13.90;99747.00;;;;5108411;28;20054;-73
2021/10/23 05:58:59;;;;;;;20.83;13.00;;;;;13.90;99747.00;;;;5107945;28;20051;-74
2021/10/23 06:01:32;;;;;;;18.95;10.98;;;;;13.80;99722.00;;;;5108443;28;20119;-73
2021/10/23 06:04:01;;;;;;;17.35;11.65;;;;;13.80;99720.00;;;;5108369;28;20101;-74
2021/10/23 06:06:31;;;;;;;15.52;11.05;;;;;13.80;99716.00;;;;5106610;28;20063;-74
2021/10/23 06:09:01;;;;;;;20.83;12.52;;;;;13.80;99728.00;;;;5106561;28;20058;-74
2021/10/23 06:11:31;;;;;;;25.43;13.80;;;;;13.80;99734.00;;;;5108056;28;20051;-75
2021/10/23 06:14:03;;;;;;;22.45;12.68;;;;;13.70;99733.00;;;;5107433;28;20053;-74
2021/10/23 06:16:33;;;;;;;23.33;13.25;;;;;13.70;99735.00;;;;5108430;28;20495;-73
2021/10/23 06:19:06;;;;;;;14.05;11.32;;;;;13.70;99723.00;;;;5108261;28;20130;-74
2021/10/23 06:21:36;;;;;;;18.92;12.02;;;;;13.60;99712.00;;;;5107916;28;20040;-74
2021/10/23 06:24:05;;;;;;;21.90;11.88;;;;;13.50;99730.00;;;;5107577;28;20097;-74
2021/10/23 06:26:35;;;;;;;15.95;11.52;;;;;13.60;99724.00;;;;5107649;28;20756;-75
2021/10/23 06:29:04;;;;;;;23.58;12.30;;;;;13.60;99733.00;;;;5107499;28;20046;-73
2021/10/23 06:31:34;;;;;;;16.20;13.13;;;;;13.60;99730.00;;;;5107358;28;20063;-74
2021/10/23 06:34:04;;;;;;;15.23;12.43;;;;;13.60;99733.00;;;;5107547;28;20035;-75
2021/10/23 06:36:33;;;;;;;18.35;12.38;;;;;13.60;99745.00;;;;5107604;28;20595;-74
2021/10/23 06:39:03;;;;;;;32.50;13.73;;;;;13.60;99755.00;;;;5107070;28;20063;-73
2021/10/23 06:41:35;;;;;;;24.25;12.32;;;;;13.70;99756.00;;;;5107908;28;20082;-74
2021/10/23 06:44:09;;;;;;;27.20;13.63;;;;;13.70;99763.00;;;;5107298;28;20162;-74
2021/10/23 06:46:40;;;;;;;43.33;15.30;;;;;13.80;99776.00;;;;5107462;28;20045;-74
2021/10/23 06:49:10;;;;;;;30.13;13.98;;;;;14.00;99766.00;;;;5108089;28;20044;-75
2021/10/23 06:51:39;;;;;;;27.27;13.43;;;;;14.00;99758.00;;;;5107049;28;20035;-73
2021/10/23 06:54:09;;;;;;;31.20;13.10;;;;;14.00;99772.00;;;;5107108;28;20451;-75
2021/10/23 06:56:38;;;;;;;28.85;11.95;;;;;14.00;99785.00;;;;5107254;28;20050;-74
2021/10/23 06:59:08;;;;;;;23.83;13.43;;;;;14.00;99776.00;;;;5107033;28;20040;-73
2021/10/23 07:01:38;;;;;;;23.58;11.93;;;;;14.00;99784.00;;;;5107415;28;20048;-73
2021/10/23 07:04:07;;;;;;;27.98;12.65;;;;;14.00;99754.00;;;;5106828;28;20035;-73
2021/10/23 07:06:37;;;;;;;22.20;13.23;;;;;14.00;99766.00;;;;5107602;28;20435;-75
2021/10/23 07:09:06;;;;;;;19.75;12.90;;;;;13.90;99761.00;;;;5107214;28;20032;-74
2021/10/23 07:11:36;;;;;;;31.13;11.88;;;;;13.90;99771.00;;;;5106961;28;20084;-73
2021/10/23 07:14:05;;;;;;;20.58;11.57;;;;;13.90;99789.00;;;;5107057;28;20058;-74
2021/10/23 07:16:34;;;;;;;23.67;11.75;;;;;13.90;99790.00;;;;5106568;28;20044;-74
2021/10/23 07:19:04;;;;;;;15.48;11.07;;;;;13.90;99768.00;;;;5107261;28;20058;-75
2021/10/23 07:21:33;;;;;;;16.02;11.18;;;;;13.90;99769.00;;;;5110664;28;20052;-75
2021/10/23 07:24:03;;;;;;;16.75;12.40;;;;;13.90;99770.00;;;;5111023;28;20142;-74
2021/10/23 07:26:33;;;;;;;18.27;11.77;;;;;13.80;99779.00;;;;5109850;28;20055;-72
2021/10/23 07:29:04;;;;;;;23.98;12.98;;;;;13.70;99782.00;;;;5111312;28;20606;-71
2021/10/23 07:31:33;;;;;;;24.90;12.65;;;;;13.70;99753.00;;;;5109932;28;20079;-72
2021/10/23 07:34:03;;;;;;;19.25;11.75;;;;;13.70;99753.00;;;;5111261;28;20048;-74
2021/10/23 07:36:32;;;;;;;18.75;12.90;;;;;13.70;99753.00;;;;5111129;28;20480;-74
2021/10/23 07:39:02;;;;;;;23.10;12.02;;;;;13.70;99751.00;;;;5111217;28;20062;-73
2021/10/23 07:41:31;;;;;;;15.98;12.30;;;;;13.60;99730.00;;;;5110359;28;20047;-73
2021/10/23 07:44:00;;;;;;;20.70;13.15;;;;;13.60;99761.00;;;;5110437;28;20855;-73
2021/10/23 07:46:30;;;;;;;20.85;13.85;;;;;13.70;99772.00;;;;5110955;27;20437;-74
2021/10/23 07:49:00;;;;;;;21.40;12.65;;;;;13.70;99752.00;;;;5110359;28;20417;-75
2021/10/23 07:51:30;;;;;;;20.10;12.90;;;;;13.70;99761.00;;;;5111189;28;20051;-74
2021/10/23 07:54:00;;;;;;;18.27;11.88;;;;;13.70;99740.00;;;;5110492;28;20054;-74
2021/10/23 07:56:29;;;;;;;20.05;12.77;;;;;13.70;99756.00;;;;5111364;28;20074;-74
2021/10/23 07:58:59;;;;;;;23.00;13.23;;;;;13.60;99759.00;;;;5110776;28;20046;-74
2021/10/23 08:01:29;;;;;;;22.52;13.85;;;;;13.60;99745.00;;;;5109093;28;20039;-75
2021/10/23 08:03:58;;;;;;;27.33;14.05;;;;;13.60;99748.00;;;;5110220;28;20163;-75
2021/10/23 08:06:28;;;;;;;23.55;13.20;;;;;13.60;99763.00;;;;5110041;28;20054;-74
2021/10/23 08:08:58;;;;;;;21.10;12.70;;;;;13.50;99746.00;;;;5110293;28;20089;-75
2021/10/23 08:11:27;;;;;;;19.40;12.40;;;;;13.60;99756.00;;;;5108966;28;20048;-74
2021/10/23 08:13:56;;;;;;;23.27;14.85;;;;;13.50;99767.00;;;;5110068;28;20070;-74
2021/10/23 08:16:26;;;;;;;21.00;14.05;;;;;13.50;99778.00;;;;5109467;28;20109;-74
2021/10/23 08:18:55;;;;;;;21.90;14.25;;;;;13.50;99778.00;;;;5110403;28;20070;-74
2021/10/23 08:21:25;;;;;;;19.13;13.40;;;;;13.50;99771.00;;;;5109792;28;20047;-74
2021/10/23 08:23:54;;;;;;;21.00;13.73;;;;;13.50;99794.00;;;;5110147;28;20502;-74
2021/10/23 08:26:24;;;;;;;23.25;14.35;;;;;13.50;99791.00;;;;5110074;28;20047;-75
2021/10/23 08:28:55;;;;;;;19.33;13.38;;;;;13.50;99797.00;;;;5109761;28;20054;-75
2021/10/23 08:31:24;;;;;;;25.92;14.07;;;;;13.60;99807.00;;;;5108720;28;20047;-75
2021/10/23 08:33:56;;;;;;;21.35;14.68;;;;;13.50;99812.00;;;;5109797;28;20494;-74
2021/10/23 08:36:26;;;;;;;24.50;14.98;;;;;13.50;99818.00;;;;5109827;28;20051;-74
2021/10/23 08:38:56;;;;;;;19.25;14.23;;;;;13.50;99819.00;;;;5109928;28;20066;-74
2021/10/23 08:41:26;;;;;;;17.83;13.57;;;;;13.50;99826.00;;;;5109261;28;20050;-74
2021/10/23 08:43:56;;;;;;;27.80;14.43;;;;;13.60;99790.00;;;;5109242;28;20556;-74
2021/10/23 08:46:29;;;;;;;15.30;13.30;;;;;13.60;99799.00;;;;5109203;28;20422;-75
2021/10/23 08:49:04;;;;;;;17.25;12.77;;;;;13.60;99780.00;;;;5109737;28;20051;-75
2021/10/23 08:51:34;;;;;;;21.60;14.10;;;;;13.60;99782.00;;;;5109171;28;20055;-74
2021/10/23 08:54:04;;;;;;;22.48;15.32;;;;;13.70;99804.00;;;;5109746;27;20052;-75
2021/10/23 08:56:34;;;;;;;15.80;12.73;;;;;13.60;99778.00;;;;5108916;28;20058;-73
2021/10/23 08:59:04;;;;;;;16.45;12.82;;;;;13.60;99799.00;;;;5109621;28;20418;-74
2021/10/23 09:01:33;;;;;;;21.90;13.82;;;;;13.70;99778.00;;;;5109302;28;20047;-73
2021/10/23 09:04:03;;;;;;;28.38;13.02;;;;;13.70;99796.00;;;;5109435;28;20080;-75
2021/10/23 09:06:38;;;;;;;22.02;13.00;;;;;13.70;99776.00;;;;5108277;28;20063;-74
2021/10/23 09:09:14;;;;;;;18.27;13.10;;;;;13.70;99771.00;;;;5107786;28;20055;-74
2021/10/23 09:11:46;;;;;;;28.83;16.30;;;;;13.80;99808.00;;;;5109315;28;20047;-74
2021/10/23 09:14:31;;;;;;;28.95;16.73;;;;;13.90;99790.00;;;;5109067;27;20048;-75
2021/10/23 09:17:08;;;;;;;22.65;15.95;;;;;13.90;99773.00;;;;5108365;28;20085;-74
2021/10/23 09:19:45;;;;;;;33.50;15.63;;;;;13.90;99787.00;;;;5107392;28;20043;-74
2021/10/23 09:22:33;;;;;;;32.83;15.80;;;;;13.90;99793.00;;;;5109183;28;20032;-75
2021/10/23 09:25:15;;;;;;;23.50;15.80;;;;;14.00;99774.00;;;;5108263;28;20599;-74
2021/10/23 09:27:45;;;;;;;;;;;;;14.10;99782.00;;;;5109788;28;20043;-75
2021/10/23 09:30:19;;;;;;;19.65;13.27;;;;;14.20;99782.00;;;;5108526;28;19924;-74
2021/10/23 09:32:56;;;;;;;19.45;13.70;;;;;14.30;99788.00;;;;5108778;28;20575;-75
2021/10/23 09:35:28;;;;;;;16.25;13.98;;;;;14.40;99777.00;;;;5108930;28;20516;-74
2021/10/23 09:38:00;;;;;;;20.20;13.38;;;;;14.50;99759.00;;;;5107553;28;20070;-75
2021/10/23 09:40:31;;;;;;;21.30;13.30;;;;;14.60;99770.00;;;;5107624;28;20039;-73
2021/10/23 09:43:17;;;;;;;23.60;13.88;;;;;14.90;99761.00;;;;5108619;28;20126;-75
2021/10/23 09:46:07;;;;;;;17.10;11.80;;;;;15.00;99745.00;;;;5108846;28;20052;-75
2021/10/23 09:48:53;;;;;;;24.40;12.35;;;;;16.40;99677.00;;;;5108984;28;20050;-75
2021/10/23 09:51:31;;;;;;;18.48;11.77;;;;;16.10;99702.00;;;;5108754;28;20503;-75
2021/10/23 09:54:04;;;;;;;19.60;10.32;;;;;18.40;99519.00;;;;5108263;28;20039;-75
2021/10/23 09:56:39;;;;;;;13.00;8.45;;;;;21.00;99527.00;;;;5108635;28;20050;-74
2021/10/23 09:59:11;;;;;;;13.70;7.60;;;;;21.60;99571.00;;;;5108196;28;20119;-73
2021/10/23 10:01:43;;;;;;;13.00;7.97;;;;;21.30;99609.00;;;;5108376;28;20050;-73
2021/10/23 10:04:16;;;;;;;11.50;7.22;;;;;19.50;99629.00;;;;5108160;28;20093;-72
2021/10/23 10:06:46;;;;;;;21.38;7.35;;;;;20.40;99611.00;;;;5107875;28;20086;-73
2021/10/23 10:09:24;;;;;;;10.90;7.20;;;;;20.30;99619.00;;;;5107599;28;20039;-75
2021/10/23 10:11:56;;;;;;;14.68;6.30;;;;;21.10;99593.00;;;;5108176;28;20044;-75
2021/10/23 10:14:31;;;;;;;15.27;6.97;;;;;22.90;99489.00;;;;5108120;28;20039;-75
2021/10/23 10:17:02;;;;;;;20.70;7.30;;;;;23.90;99491.00;;;;5108227;28;20122;-74
2021/10/23 10:19:31;;;;;;;;;;;;;25.50;99500.00;;;;5108987;28;20123;-73
2021/10/23 10:22:10;;;;;;;13.18;5.90;;;;;23.60;99511.00;;;;5107735;28;19923;-73
2021/10/23 10:24:41;;;;;;;14.50;6.55;;;;;22.20;99493.00;;;;5107967;28;20044;-75
2021/10/23 10:27:19;;;;;;;15.70;7.10;;;;;24.00;99437.00;;;;5107131;28;20427;-76
2021/10/23 10:29:58;;;;;;;11.70;6.03;;;;;25.10;99414.00;;;;5107669;28;20126;-74
2021/10/23 10:32:36;;;;;;;18.35;6.35;;;;;25.30;99430.00;;;;5106593;28;20031;-74
2021/10/23 10:43:18;;;;;;;11.77;5.28;;;;;26.50;99354.00;;;;5107676;28;20077;-75
2021/10/23 10:45:48;;;;;;;13.35;5.60;;;;;26.70;99336.00;;;;5106031;28;20153;-74
2021/10/23 10:48:30;;;;;;;14.10;5.43;;;;;27.40;99326.00;;;;5107648;28;20130;-78
2021/10/23 10:51:07;;;;;;;12.07;5.60;;;;;27.20;99321.00;;;;5107208;28;20031;-76
2021/10/23 10:53:40;;;;;;;20.88;6.10;;;;;27.30;99312.00;;;;5107971;28;20070;-74
2021/10/23 10:56:13;;;;;;;11.98;4.85;;;;;27.90;99324.00;;;;5106455;28;20120;-74
2021/10/23 10:58:53;;;;;;;18.30;4.72;;;;;28.80;99329.00;;;;5107516;28;20067;-74
2021/10/23 11:01:30;;;;;;;7.85;4.20;;;;;29.50;99313.00;;;;5107343;28;20130;-75
2021/10/23 11:04:03;;;;;;;14.15;3.70;;;;;29.50;99324.00;;;;5106238;28;20445;-74
2021/10/23 11:06:45;;;;;;;7.63;3.30;;;;;30.30;99327.00;;;;5107607;28;20056;-76
2021/10/23 11:09:19;;;;;;;12.07;4.05;;;;;30.10;99340.00;;;;5107336;28;20072;-79
2021/10/23 11:11:50;;;;;;;10.95;4.10;;;;;29.40;99318.00;;;;5105875;28;20063;-74
2021/10/23 11:14:27;;;;;;;8.48;3.45;;;;;28.80;99335.00;;;;5106795;28;20116;-74
2021/10/23 11:17:00;;;;;;;17.58;4.30;;;;;28.60;99343.00;;;;5107058;28;20051;-75
2021/10/23 11:19:34;;;;;;;13.60;4.20;;;;;28.20;99337.00;;;;5105900;28;20058;-75
2021/10/23 11:22:27;;;;;;;21.70;4.75;;;;;28.40;99355.00;;;;5106868;28;20055;-74
2021/10/23 11:25:03;;;;;;;13.80;3.70;;;;;27.70;99357.00;;;;5107395;28;20042;-74
2021/10/23 11:27:53;;;;;;;12.68;4.55;;;;;27.70;99374.00;;;;5107566;28;20047;-75
2021/10/23 11:30:26;;;;;;;16.27;5.10;;;;;26.80;99368.00;;;;5106159;28;20052;-75
2021/10/23 11:33:01;;;;;;;11.77;4.32;;;;;26.40;99393.00;;;;5106849;28;20286;-75
2021/10/23 11:35:41;;;;;;;9.60;3.40;;;;;26.00;99405.00;;;;5105471;28;20086;-75
2021/10/23 11:38:30;;;;;;;21.63;4.38;;;;;25.20;99450.00;;;;5107013;28;20047;-75
2021/10/23 11:41:03;;;;;;;18.23;4.07;;;;;24.80;99468.00;;;;5106424;28;20064;-74
2021/10/23 11:43:38;;;;;;;14.80;5.40;;;;;24.70;99468.00;;;;5106912;28;20430;-75
2021/10/23 11:46:13;;;;;;;8.50;3.72;;;;;25.10;99474.00;;;;5107043;28;20430;-74
2021/10/23 11:48:57;;;;;;;18.85;4.22;;;;;25.30;99500.00;;;;5106760;28;20491;-75
2021/10/23 11:51:28;;;;;;;10.32;3.78;;;;;25.50;99479.00;;;;5104991;28;20051;-74
2021/10/23 11:54:05;;;;;;;15.60;4.22;;;;;25.80;99461.00;;;;5105916;28;20456;-74
2021/10/23 11:56:39;;;;;;;9.80;3.75;;;;;25.70;99473.00;;;;5106580;28;20047;-74
2021/10/23 11:59:09;;;;;;;12.82;4.10;;;;;25.60;99493.00;;;;5106633;28;20080;-72
2021/10/23 12:01:39;;;;;;;7.63;3.60;;;;;26.00;99491.00;;;;5106905;28;20053;-73
2021/10/23 12:04:09;;;;;;;7.10;3.55;;;;;25.80;99507.00;;;;5106745;28;20050;-74
2021/10/23 12:06:42;;;;;;;7.55;3.65;;;;;25.50;99518.00;;;;5106445;28;20059;-73
2021/10/23 12:09:30;;;;;;;8.02;3.25;;;;;25.80;99507.00;;;;5111155;28;20532;-73
2021/10/23 12:12:10;;;;;;;13.57;3.17;;;;;26.00;99503.00;;;;5110340;28;20514;-73
2021/10/23 12:14:40;;;;;;;7.80;2.83;;;;;25.60;99535.00;;;;5111052;28;20049;-74
2021/10/23 12:17:09;;;;;;;46.38;8.90;;;;;25.60;99510.00;;;;5110310;28;20355;-72
2021/10/23 12:19:41;;;;;;;492.98;69.65;;;;;25.40;99526.00;;;;5110332;28;20085;-72
2021/10/23 12:22:18;;;;;;;61.00;9.55;;;;;25.60;99509.00;;;;5110685;28;20054;-73
2021/10/23 12:24:51;;;;;;;11.15;4.03;;;;;25.40;99515.00;;;;5109955;28;20765;-72
2021/10/23 12:27:24;;;;;;;46.50;9.70;;;;;25.40;99487.00;;;;5110262;28;20058;-72
2021/10/23 12:29:59;;;;;;;17.67;6.88;;;;;25.70;99495.00;;;;5110382;28;20118;-72
2021/10/23 12:32:36;;;;;;;13.18;3.45;;;;;25.80;99479.00;;;;5108598;28;20054;-72